Time;durP1;ratioP1;P1;durP2;ratioP2;P2;SDS_P1;SDS_P2;PMS_P1;PMS_P2;Temp;Humidity;BMP_temperature;BMP_pressure;BME280_temperature;BME280_humidity;BME280_pressure;Samples;Min_cycle;Max_cycle;Signal;HPM_P1;HPM_P2
2023/05/16 00:00:34;;;;;;;8.38;5.03;;;;;;;;;;5119152;28;20043;-81
2023/05/16 00:03:19;;;;;;;6.72;4.68;;;;;;;;;;5118996;28;20484;-81
2023/05/16 00:06:05;;;;;;;11.05;5.55;;;;;;;;;;5118039;28;20047;-81
2023/05/16 00:08:50;;;;;;;11.60;6.00;;;;;;;;;;5118735;28;20035;-82
2023/05/16 00:11:36;;;;;;;8.68;5.88;;;;;;;;;;5117642;28;20040;-82
2023/05/16 00:14:25;;;;;;;7.05;4.35;;;;;;;;;;5115149;28;20043;-82
2023/05/16 00:17:10;;;;;;;10.82;5.38;;;;;;;;;;5115668;28;20388;-82
2023/05/16 00:19:57;;;;;;;18.80;6.57;;;;;;;;;;5115108;28;20484;-82
2023/05/16 00:22:42;;;;;;;15.10;5.65;;;;;;;;;;5115045;28;20404;-81
2023/05/16 00:25:28;;;;;;;7.55;5.15;;;;;;;;;;5099711;28;20051;-82
2023/05/16 00:28:13;;;;;;;9.80;6.05;;;;;;;;;;5114981;28;20044;-82
2023/05/16 00:30:59;;;;;;;11.18;4.55;;;;;;;;;;5106689;28;20047;-81
2023/05/16 00:33:45;;;;;;;8.80;5.55;;;;;;;;;;5106143;28;20400;-81
2023/05/16 00:36:30;;;;;;;9.35;5.70;;;;;;;;;;5091923;28;20035;-81
2023/05/16 00:39:16;;;;;;;6.28;4.20;;;;;;;;;;5105514;28;20396;-80
2023/05/16 00:42:01;;;;;;;11.02;5.50;;;;;;;;;;5106086;28;20039;-81
2023/05/16 00:44:47;;;;;;;8.18;4.28;;;;;;;;;;5114714;28;20047;-81
2023/05/16 00:47:35;;;;;;;10.77;4.90;;;;;;;;;;5114518;28;20047;-82
2023/05/16 00:50:20;;;;;;;12.30;4.80;;;;;;;;;;5106111;28;20039;-81
2023/05/16 00:53:07;;;;;;;5.90;3.40;;;;;;;;;;5105662;28;20039;-81
2023/05/16 00:55:58;;;;;;;10.32;5.43;;;;;;;;;;5099217;28;20040;-81
2023/05/16 00:58:47;;;;;;;11.70;4.88;;;;;;;;;;5105776;28;20055;-81
2023/05/16 01:01:34;;;;;;;7.80;4.78;;;;;;;;;;5114760;28;20048;-81
2023/05/16 01:04:20;;;;;;;11.63;5.90;;;;;;;;;;5114445;28;20059;-81
2023/05/16 01:07:05;;;;;;;7.18;4.18;;;;;;;;;;5114464;28;20039;-81
2023/05/16 01:09:53;;;;;;;10.43;5.97;;;;;;;;;;5114471;28;20040;-81
2023/05/16 01:12:42;;;;;;;10.32;5.35;;;;;;;;;;5105682;28;20036;-82
2023/05/16 01:15:31;;;;;;;10.43;5.28;;;;;;;;;;5105603;28;20043;-81
2023/05/16 01:18:33;;;;;;;9.52;5.55;;;;;;;;;;5105825;28;20481;-82
2023/05/16 01:21:34;;;;;;;11.00;5.75;;;;;;;;;;5105601;28;20044;-82
2023/05/16 01:24:36;;;;;;;13.55;5.00;;;;;;;;;;5105497;28;20481;-82
2023/05/16 01:27:23;;;;;;;13.40;5.97;;;;;;;;;;5114077;28;20044;-82
2023/05/16 01:30:16;;;;;;;9.57;5.75;;;;;;;;;;5113920;28;20490;-82
2023/05/16 01:33:02;;;;;;;9.98;6.05;;;;;;;;;;5108825;28;20044;-81
2023/05/16 01:36:16;;;;;;;9.15;5.32;;;;;;;;;;5102766;28;20043;-82
2023/05/16 01:39:24;;;;;;;10.57;6.68;;;;;;;;;;5125092;28;20040;-82
2023/05/16 01:42:13;;;;;;;7.93;4.63;;;;;;;;;;5102674;28;20138;-82
2023/05/16 01:45:11;;;;;;;10.82;6.60;;;;;;;;;;5117948;28;20039;-81
2023/05/16 01:48:21;;;;;;;10.40;6.22;;;;;;;;;;5109563;28;20048;-82
2023/05/16 01:51:08;;;;;;;7.38;4.97;;;;;;;;;;5102414;28;20040;-82
2023/05/16 01:54:00;;;;;;;13.85;6.68;;;;;;;;;;5118052;28;20043;-81
2023/05/16 01:56:53;;;;;;;5.63;4.43;;;;;;;;;;5109066;28;20484;-82
2023/05/16 01:59:41;;;;;;;13.45;6.22;;;;;;;;;;5117657;28;20039;-82
2023/05/16 02:02:28;;;;;;;8.98;5.15;;;;;;;;;;5117476;28;20044;-82
2023/05/16 02:05:14;;;;;;;15.45;6.28;;;;;;;;;;5117622;28;20396;-82
2023/05/16 02:08:00;;;;;;;8.93;5.65;;;;;;;;;;5109065;28;20484;-81
2023/05/16 02:10:46;;;;;;;10.35;4.50;;;;;;;;;;5117211;28;20074;-82
2023/05/16 02:13:32;;;;;;;10.32;5.20;;;;;;;;;;5116739;28;20040;-82
2023/05/16 02:16:21;;;;;;;8.68;6.05;;;;;;;;;;5108221;28;20052;-80
2023/05/16 02:19:06;;;;;;;10.32;6.63;;;;;;;;;;5101675;28;20047;-82
2023/05/16 02:21:51;;;;;;;12.75;6.38;;;;;;;;;;5108477;28;20047;-82
2023/05/16 02:24:36;;;;;;;9.73;5.28;;;;;;;;;;5108175;28;20410;-82
2023/05/16 02:27:21;;;;;;;10.27;5.88;;;;;;;;;;5116587;28;20036;-82
2023/05/16 02:30:08;;;;;;;9.75;5.40;;;;;;;;;;5117147;28;20043;-82
2023/05/16 02:32:53;;;;;;;12.50;6.35;;;;;;;;;;5107938;28;20043;-82
2023/05/16 02:35:39;;;;;;;11.00;6.47;;;;;;;;;;5116585;28;20083;-81
2023/05/16 02:38:24;;;;;;;10.95;6.70;;;;;;;;;;5107116;28;20040;-82
2023/05/16 02:41:09;;;;;;;15.93;6.78;;;;;;;;;;5116015;28;20036;-84
2023/05/16 02:43:55;;;;;;;10.45;5.70;;;;;;;;;;5116351;28;20422;-83
2023/05/16 02:46:40;;;;;;;15.02;6.72;;;;;;;;;;5116577;28;20491;-82
2023/05/16 02:49:26;;;;;;;9.90;7.03;;;;;;;;;;5107698;28;20043;-82
2023/05/16 02:52:12;;;;;;;11.20;6.40;;;;;;;;;;5107596;28;20039;-82
2023/05/16 02:54:57;;;;;;;11.35;6.57;;;;;;;;;;5107547;28;20043;-81
2023/05/16 02:57:43;;;;;;;18.50;7.20;;;;;;;;;;5116479;28;20035;-82
2023/05/16 03:00:31;;;;;;;13.20;7.03;;;;;;;;;;5116034;28;20350;-82
2023/05/16 03:03:19;;;;;;;14.20;7.35;;;;;;;;;;5115774;28;20048;-82
2023/05/16 03:06:05;;;;;;;15.48;7.85;;;;;;;;;;5107457;28;20036;-82
2023/05/16 03:08:51;;;;;;;11.82;6.40;;;;;;;;;;5115971;28;20051;-81
2023/05/16 03:11:37;;;;;;;14.43;5.95;;;;;;;;;;5102263;28;20039;-82
2023/05/16 03:14:22;;;;;;;11.88;7.47;;;;;;;;;;5108054;28;20047;-81
2023/05/16 03:17:08;;;;;;;12.68;7.13;;;;;;;;;;5116191;28;20051;-81
2023/05/16 03:19:54;;;;;;;12.20;6.93;;;;;;;;;;5116370;28;20051;-82
2023/05/16 03:22:39;;;;;;;13.23;7.45;;;;;;;;;;5116024;28;20043;-82
2023/05/16 03:25:25;;;;;;;13.13;7.25;;;;;;;;;;5116010;28;20221;-81
2023/05/16 03:28:11;;;;;;;14.55;6.65;;;;;;;;;;5107334;28;20048;-81
2023/05/16 03:30:57;;;;;;;10.45;6.97;;;;;;;;;;5115957;28;20039;-82
2023/05/16 03:33:43;;;;;;;6.50;4.47;;;;;;;;;;5116383;28;20036;-81
2023/05/16 03:36:28;;;;;;;6.80;5.55;;;;;;;;;;5107073;28;20055;-82
2023/05/16 03:39:15;;;;;;;8.05;5.53;;;;;;;;;;5115684;28;20039;-82
2023/05/16 03:42:00;;;;;;;9.23;5.90;;;;;;;;;;5116129;28;20386;-81
2023/05/16 03:44:46;;;;;;;9.10;4.90;;;;;;;;;;5115699;28;20400;-82
2023/05/16 03:47:32;;;;;;;12.20;6.40;;;;;;;;;;5115626;28;20047;-81
2023/05/16 03:50:17;;;;;;;12.50;5.63;;;;;;;;;;5107079;28;20447;-82
2023/05/16 03:53:03;;;;;;;11.65;6.03;;;;;;;;;;5115445;28;20039;-82
2023/05/16 03:55:48;;;;;;;9.93;5.72;;;;;;;;;;5115085;28;20468;-81
2023/05/16 03:58:34;;;;;;;11.07;5.68;;;;;;;;;;5115350;28;20047;-82
2023/05/16 04:01:19;;;;;;;8.48;5.10;;;;;;;;;;5115434;28;20389;-81
2023/05/16 04:04:05;;;;;;;12.00;7.20;;;;;;;;;;5114994;28;20036;-82
2023/05/16 04:06:50;;;;;;;9.65;5.45;;;;;;;;;;5115373;28;20044;-82
2023/05/16 04:09:36;;;;;;;9.10;6.68;;;;;;;;;;5115209;28;20047;-81
2023/05/16 04:12:21;;;;;;;11.43;6.45;;;;;;;;;;5114585;28;20047;-81
2023/05/16 04:15:07;;;;;;;11.10;6.45;;;;;;;;;;5114987;28;20040;-81
2023/05/16 04:17:53;;;;;;;11.90;5.65;;;;;;;;;;5114937;28;20035;-82
2023/05/16 04:20:38;;;;;;;6.35;5.10;;;;;;;;;;5115030;28;20044;-82
2023/05/16 04:23:24;;;;;;;6.53;4.68;;;;;;;;;;5115251;28;20396;-82
2023/05/16 04:26:10;;;;;;;8.60;5.85;;;;;;;;;;5115161;28;20051;-82
2023/05/16 04:28:55;;;;;;;8.45;5.60;;;;;;;;;;5114796;28;20044;-82
2023/05/16 04:31:41;;;;;;;17.70;6.40;;;;;;;;;;5114992;28;20044;-81
2023/05/16 04:34:26;;;;;;;8.85;4.90;;;;;;;;;;5114957;28;20048;-82
2023/05/16 04:37:12;;;;;;;6.35;4.78;;;;;;;;;;5114734;28;20047;-82
2023/05/16 04:39:58;;;;;;;7.75;5.32;;;;;;;;;;5114711;28;20397;-81
2023/05/16 04:42:43;;;;;;;14.30;5.35;;;;;;;;;;5105884;28;20404;-82
2023/05/16 04:45:29;;;;;;;8.52;6.07;;;;;;;;;;5114781;28;20035;-82
2023/05/16 04:48:14;;;;;;;8.30;5.60;;;;;;;;;;5114428;28;20035;-81
2023/05/16 04:51:00;;;;;;;9.00;5.97;;;;;;;;;;5114760;28;20040;-81
2023/05/16 04:53:46;;;;;;;11.43;6.32;;;;;;;;;;5113174;28;20051;-82
2023/05/16 04:56:31;;;;;;;5.20;4.03;;;;;;;;;;5114227;28;20043;-83
2023/05/16 04:59:16;;;;;;;13.18;5.35;;;;;;;;;;5114317;28;20044;-82
2023/05/16 05:02:03;;;;;;;8.20;4.90;;;;;;;;;;5114338;28;20043;-84
2023/05/16 05:04:49;;;;;;;6.93;4.55;;;;;;;;;;5114363;28;20428;-79
2023/05/16 05:07:34;;;;;;;6.93;5.07;;;;;;;;;;5113078;28;20047;-81
2023/05/16 05:10:20;;;;;;;6.70;4.70;;;;;;;;;;5113921;28;20044;-82
2023/05/16 05:13:05;;;;;;;8.75;5.03;;;;;;;;;;5114227;28;20055;-81
2023/05/16 05:15:51;;;;;;;10.98;6.40;;;;;;;;;;5113922;28;20513;-80
2023/05/16 05:18:37;;;;;;;9.13;4.70;;;;;;;;;;5113869;28;20044;-80
2023/05/16 05:21:24;;;;;;;6.20;4.28;;;;;;;;;;5113992;28;20048;-80
2023/05/16 05:24:09;;;;;;;8.95;4.97;;;;;;;;;;5113921;28;20043;-81
2023/05/16 05:26:55;;;;;;;7.78;4.65;;;;;;;;;;5114191;28;20043;-80
2023/05/16 05:29:40;;;;;;;10.57;4.68;;;;;;;;;;5113808;28;20048;-80
2023/05/16 05:32:25;;;;;;;7.22;5.05;;;;;;;;;;5113188;28;20484;-81
2023/05/16 05:35:11;;;;;;;7.80;4.80;;;;;;;;;;5113501;28;20405;-80
2023/05/16 05:37:57;;;;;;;6.72;4.68;;;;;;;;;;5113847;28;20040;-79
2023/05/16 05:40:42;;;;;;;9.32;4.80;;;;;;;;;;5114317;28;20039;-79
2023/05/16 05:43:28;;;;;;;12.23;3.92;;;;;;;;;;5113605;28;20048;-81
2023/05/16 05:46:14;;;;;;;8.43;5.32;;;;;;;;;;5113500;28;20062;-81
2023/05/16 05:49:00;;;;;;;6.55;5.03;;;;;;;;;;5098646;28;20048;-82
2023/05/16 05:51:45;;;;;;;5.95;4.80;;;;;;;;;;5113842;28;20043;-82
2023/05/16 05:54:30;;;;;;;11.48;6.07;;;;;;;;;;5113584;28;20039;-82
2023/05/16 05:57:16;;;;;;;10.25;5.38;;;;;;;;;;5113459;28;20489;-82
2023/05/16 06:00:02;;;;;;;9.60;5.70;;;;;;;;;;5098492;28;20052;-81
2023/05/16 06:02:52;;;;;;;10.43;6.05;;;;;;;;;;5113144;28;20044;-80
2023/05/16 06:05:37;;;;;;;13.45;6.03;;;;;;;;;;5112848;28;20040;-81
2023/05/16 06:08:22;;;;;;;9.13;6.18;;;;;;;;;;5113077;28;20048;-81
2023/05/16 06:11:08;;;;;;;11.15;5.68;;;;;;;;;;5112625;28;20473;-82
2023/05/16 06:13:54;;;;;;;10.40;5.85;;;;;;;;;;5113198;28;20044;-82
2023/05/16 06:16:39;;;;;;;11.02;6.00;;;;;;;;;;5113043;28;20044;-82
2023/05/16 06:19:25;;;;;;;10.90;6.47;;;;;;;;;;5093472;28;20492;-82
2023/05/16 06:22:10;;;;;;;9.77;6.30;;;;;;;;;;5116769;28;20048;-82
2023/05/16 06:24:55;;;;;;;9.05;5.75;;;;;;;;;;5116640;28;20047;-82
2023/05/16 06:27:41;;;;;;;7.35;5.18;;;;;;;;;;5116965;28;20040;-82
2023/05/16 06:30:27;;;;;;;7.68;4.75;;;;;;;;;;5116579;28;20401;-79
2023/05/16 06:33:14;;;;;;;7.38;5.45;;;;;;;;;;5116539;28;20044;-80
2023/05/16 06:35:59;;;;;;;11.82;6.00;;;;;;;;;;5116794;28;20473;-83
2023/05/16 06:38:46;;;;;;;10.13;6.32;;;;;;;;;;5116770;28;20048;-81
2023/05/16 06:41:31;;;;;;;7.40;5.95;;;;;;;;;;5116822;28;20040;-83
2023/05/16 06:44:17;;;;;;;12.48;5.93;;;;;;;;;;5116673;28;20048;-82
2023/05/16 06:47:02;;;;;;;12.07;5.95;;;;;;;;;;5116871;28;20047;-80
2023/05/16 06:49:49;;;;;;;11.52;5.72;;;;;;;;;;5116699;28;20043;-82
2023/05/16 06:52:34;;;;;;;7.97;4.57;;;;;;;;;;5116948;28;20047;-82
2023/05/16 06:55:19;;;;;;;7.75;5.18;;;;;;;;;;5116575;28;20044;-82
2023/05/16 06:58:05;;;;;;;10.35;5.75;;;;;;;;;;5114969;28;20039;-82
2023/05/16 07:00:50;;;;;;;8.93;5.75;;;;;;;;;;5116457;28;20040;-82
2023/05/16 07:03:36;;;;;;;11.95;5.25;;;;;;;;;;5116385;28;20043;-82
2023/05/16 07:06:21;;;;;;;9.38;5.47;;;;;;;;;;5116329;28;20397;-80
2023/05/16 07:09:07;;;;;;;5.80;4.53;;;;;;;;;;5116369;28;20044;-82
2023/05/16 07:11:52;;;;;;;12.07;6.30;;;;;;;;;;5083591;28;20040;-82
2023/05/16 07:14:39;;;;;;;9.15;4.97;;;;;;;;;;5075474;28;20044;-84
2023/05/16 07:17:24;;;;;;;14.63;6.00;;;;;;;;;;5075228;28;20394;-82
2023/05/16 07:20:12;;;;;;;9.07;5.43;;;;;;;;;;5075523;28;20036;-81
2023/05/16 07:22:58;;;;;;;9.93;5.78;;;;;;;;;;5075291;28;20389;-80
2023/05/16 07:25:43;;;;;;;12.82;5.70;;;;;;;;;;5075425;28;20040;-80
2023/05/16 07:28:28;;;;;;;11.68;5.80;;;;;;;;;;5075375;28;20040;-81
2023/05/16 07:31:15;;;;;;;10.48;5.55;;;;;;;;;;5074919;28;20425;-81
2023/05/16 07:34:00;;;;;;;8.40;5.13;;;;;;;;;;5075166;28;20048;-82
2023/05/16 07:36:46;;;;;;;10.00;5.78;;;;;;;;;;5075049;28;20493;-83
2023/05/16 07:39:32;;;;;;;12.93;6.18;;;;;;;;;;5075268;28;20049;-81
2023/05/16 07:42:17;;;;;;;16.00;5.65;;;;;;;;;;5080844;28;20052;-82
2023/05/16 07:45:04;;;;;;;12.85;5.20;;;;;;;;;;5075080;28;20048;-80
2023/05/16 07:47:49;;;;;;;11.27;5.75;;;;;;;;;;5074737;28;20041;-78
2023/05/16 07:50:35;;;;;;;9.18;5.25;;;;;;;;;;5075012;28;20074;-78
2023/05/16 07:53:21;;;;;;;11.55;5.43;;;;;;;;;;5075316;28;20053;-79
2023/05/16 07:56:06;;;;;;;9.50;4.72;;;;;;;;;;5074930;28;20049;-83
2023/05/16 07:58:52;;;;;;;8.52;4.57;;;;;;;;;;5074703;28;20045;-84
2023/05/16 08:01:37;;;;;;;10.63;5.70;;;;;;;;;;5074953;28;20052;-83
2023/05/16 08:04:23;;;;;;;7.30;4.32;;;;;;;;;;5074746;28;20044;-78
2023/05/16 08:07:08;;;;;;;10.20;5.05;;;;;;;;;;5074986;28;20041;-80
2023/05/16 08:09:54;;;;;;;12.35;4.82;;;;;;;;;;5074709;28;20040;-82
2023/05/16 08:12:39;;;;;;;8.98;5.13;;;;;;;;;;5073566;28;20478;-81
2023/05/16 08:15:26;;;;;;;9.23;4.72;;;;;;;;;;5074803;28;20041;-78
2023/05/16 08:18:13;;;;;;;10.13;5.10;;;;;;;;;;5074284;28;20048;-81
2023/05/16 08:20:59;;;;;;;10.93;4.80;;;;;;;;;;5074035;28;20103;-78
2023/05/16 08:23:44;;;;;;;9.52;3.92;;;;;;;;;;5074211;28;20056;-78
2023/05/16 08:26:29;;;;;;;7.10;4.03;;;;;;;;;;5074223;28;20040;-78
2023/05/16 08:29:16;;;;;;;6.72;4.18;;;;;;;;;;5074248;28;20045;-79
2023/05/16 08:32:00;;;;;;;9.48;4.38;;;;;;;;;;5073805;28;20044;-82
2023/05/16 08:34:46;;;;;;;9.05;3.97;;;;;;;;;;5072555;28;20056;-79
2023/05/16 08:37:32;;;;;;;8.88;5.38;;;;;;;;;;5072659;28;20036;-82
2023/05/16 08:40:18;;;;;;;12.00;5.07;;;;;;;;;;5072969;28;20044;-82
2023/05/16 08:43:04;;;;;;;15.25;7.80;;;;;;;;;;5074097;28;20049;-83
2023/05/16 08:45:49;;;;;;;9.98;4.20;;;;;;;;;;5079853;28;20044;-79
2023/05/16 08:48:36;;;;;;;8.00;4.20;;;;;;;;;;5075737;28;20049;-80
2023/05/16 08:51:24;;;;;;;11.48;5.05;;;;;;;;;;5078132;28;20037;-76
2023/05/16 08:54:14;;;;;;;8.05;4.25;;;;;;;;;;5078169;28;20366;-77
2023/05/16 08:57:01;;;;;;;9.48;5.03;;;;;;;;;;5073872;28;20040;-79
2023/05/16 08:59:47;;;;;;;8.90;4.68;;;;;;;;;;5075803;28;20044;-78
2023/05/16 09:02:32;;;;;;;6.75;4.50;;;;;;;;;;5076416;28;20040;-78
2023/05/16 09:05:18;;;;;;;7.32;4.90;;;;;;;;;;5073450;28;20040;-79
2023/05/16 09:08:03;;;;;;;7.57;4.88;;;;;;;;;;5073603;28;20044;-79
2023/05/16 09:10:49;;;;;;;6.10;4.05;;;;;;;;;;5087481;28;20039;-78
2023/05/16 09:13:34;;;;;;;6.88;5.03;;;;;;;;;;5113513;28;20047;-79
2023/05/16 09:16:20;;;;;;;9.38;5.25;;;;;;;;;;5113892;28;20040;-80
2023/05/16 09:19:06;;;;;;;15.73;8.02;;;;;;;;;;5112901;28;20055;-79
2023/05/16 09:21:51;;;;;;;8.65;4.88;;;;;;;;;;5114473;28;20484;-80
2023/05/16 09:24:41;;;;;;;8.10;5.03;;;;;;;;;;5114180;28;20043;-79
2023/05/16 09:27:32;;;;;;;8.77;5.88;;;;;;;;;;5113407;28;20051;-78
2023/05/16 09:30:21;;;;;;;10.63;5.25;;;;;;;;;;5114134;28;20035;-79
2023/05/16 09:33:06;;;;;;;6.55;3.17;;;;;;;;;;5113234;28;20047;-78
2023/05/16 09:35:59;;;;;;;11.00;5.13;;;;;;;;;;5113878;28;20035;-78
2023/05/16 09:38:45;;;;;;;9.60;5.07;;;;;;;;;;5114090;28;20044;-81
2023/05/16 09:41:34;;;;;;;9.93;4.40;;;;;;;;;;5097938;28;20043;-79
2023/05/16 09:44:19;;;;;;;7.95;4.90;;;;;;;;;;5113764;28;20477;-81
2023/05/16 09:47:05;;;;;;;11.50;4.05;;;;;;;;;;5114072;28;20055;-79
2023/05/16 09:49:53;;;;;;;5.40;3.35;;;;;;;;;;5112275;28;20048;-80
2023/05/16 09:52:39;;;;;;;9.65;5.05;;;;;;;;;;5114219;28;20040;-81
2023/05/16 09:55:24;;;;;;;9.70;4.63;;;;;;;;;;5117763;28;20048;-82
2023/05/16 09:58:10;;;;;;;7.20;4.55;;;;;;;;;;5117282;28;20401;-80
2023/05/16 10:00:56;;;;;;;9.98;5.20;;;;;;;;;;5117289;28;20043;-81
2023/05/16 10:03:42;;;;;;;9.75;4.40;;;;;;;;;;5117491;28;20047;-81
2023/05/16 10:06:28;;;;;;;10.50;4.70;;;;;;;;;;5117667;28;20056;-82
2023/05/16 10:09:15;;;;;;;12.65;4.80;;;;;;;;;;5117070;28;20048;-80
2023/05/16 10:12:03;;;;;;;7.88;4.40;;;;;;;;;;5116489;28;20048;-80
2023/05/16 10:14:49;;;;;;;13.57;4.80;;;;;;;;;;5116841;28;20039;-79
2023/05/16 10:17:39;;;;;;;14.85;5.65;;;;;;;;;;5116675;28;20493;-81
2023/05/16 10:20:25;;;;;;;4.97;3.42;;;;;;;;;;5117037;28;20040;-77
2023/05/16 10:23:16;;;;;;;9.23;5.20;;;;;;;;;;5117245;28;20048;-81
2023/05/16 10:26:03;;;;;;;7.03;4.63;;;;;;;;;;5116048;28;20044;-80
2023/05/16 10:28:50;;;;;;;8.57;4.30;;;;;;;;;;5116974;28;20035;-80
2023/05/16 10:31:36;;;;;;;9.05;4.93;;;;;;;;;;5117110;28;20047;-79
2023/05/16 10:34:22;;;;;;;8.13;4.50;;;;;;;;;;5116696;28;20047;-80
2023/05/16 10:37:08;;;;;;;10.32;5.32;;;;;;;;;;5101511;28;20044;-79
2023/05/16 10:39:54;;;;;;;8.32;4.70;;;;;;;;;;5116737;28;20036;-85
2023/05/16 10:42:53;;;;;;;8.93;4.50;;;;;;;;;;5108356;28;20047;-79
2023/05/16 10:45:40;;;;;;;6.63;4.75;;;;;;;;;;5116778;28;20048;-79
2023/05/16 10:48:37;;;;;;;13.48;6.05;;;;;;;;;;5116410;28;20055;-80
2023/05/16 10:51:22;;;;;;;9.48;5.32;;;;;;;;;;5116187;28;20043;-77
2023/05/16 10:54:11;;;;;;;11.25;6.93;;;;;;;;;;5116084;28;20043;-77
2023/05/16 10:57:04;;;;;;;10.75;4.70;;;;;;;;;;5116787;28;20047;-76
2023/05/16 10:59:50;;;;;;;13.32;5.35;;;;;;;;;;5101261;28;20044;-77
2023/05/16 11:02:40;;;;;;;7.20;2.60;;;;;;;;;;5116056;28;20047;-77
2023/05/16 11:05:26;;;;;;;7.22;2.80;;;;;;;;;;5114525;28;20044;-77
2023/05/16 11:08:13;;;;;;;12.50;3.25;;;;;;;;;;5116112;28;20088;-79
2023/05/16 11:11:35;;;;;;;11.02;4.30;;;;;;;;;;5116324;28;20036;-76
2023/05/16 11:14:23;;;;;;;11.32;4.82;;;;;;;;;;5100771;28;20047;-77
2023/05/16 11:17:14;;;;;;;9.70;5.07;;;;;;;;;;5102286;28;20396;-77
2023/05/16 11:20:00;;;;;;;12.32;6.43;;;;;;;;;;5121093;28;20489;-78
2023/05/16 11:22:45;;;;;;;13.55;5.20;;;;;;;;;;5119356;28;20048;-77
2023/05/16 11:25:39;;;;;;;7.90;3.15;;;;;;;;;;5118761;28;20481;-79
2023/05/16 11:28:25;;;;;;;13.07;3.45;;;;;;;;;;5105019;28;20036;-78
2023/05/16 11:31:11;;;;;;;9.82;3.40;;;;;;;;;;5117726;28;20035;-76
2023/05/16 11:33:56;;;;;;;9.45;3.65;;;;;;;;;;5116361;28;20043;-75
2023/05/16 11:36:43;;;;;;;11.13;3.45;;;;;;;;;;5115955;28;20032;-77
2023/05/16 11:39:30;;;;;;;11.75;3.97;;;;;;;;;;5115824;28;20091;-76
2023/05/16 11:42:16;;;;;;;11.13;4.75;;;;;;;;;;5115332;28;20044;-76
2023/05/16 11:45:06;;;;;;;13.40;5.68;;;;;;;;;;5099879;28;20035;-76
2023/05/16 11:47:52;;;;;;;5.45;3.72;;;;;;;;;;5115631;28;20380;-78
2023/05/16 11:50:40;;;;;;;7.88;4.05;;;;;;;;;;5115017;28;20043;-79
2023/05/16 11:53:27;;;;;;;9.10;4.65;;;;;;;;;;5115105;28;20401;-78
2023/05/16 11:56:12;;;;;;;10.13;4.57;;;;;;;;;;5115298;28;20051;-80
2023/05/16 11:59:01;;;;;;;7.25;3.67;;;;;;;;;;5115536;28;20039;-80
2023/05/16 12:01:48;;;;;;;12.60;5.28;;;;;;;;;;5100360;28;20047;-80
2023/05/16 12:04:33;;;;;;;11.73;7.47;;;;;;;;;;5116159;28;20047;-81
2023/05/16 12:07:18;;;;;;;16.65;7.47;;;;;;;;;;5115521;28;20427;-84
2023/05/16 12:10:08;;;;;;;11.55;7.63;;;;;;;;;;5115337;28;20044;-78
2023/05/16 12:12:55;;;;;;;13.98;7.97;;;;;;;;;;5114603;28;20051;-82
2023/05/16 12:15:41;;;;;;;7.85;5.03;;;;;;;;;;5113963;28;20043;-78
2023/05/16 12:18:27;;;;;;;9.30;4.85;;;;;;;;;;5113659;28;20043;-81
2023/05/16 12:21:12;;;;;;;9.70;4.30;;;;;;;;;;5114311;28;20040;-79
2023/05/16 12:23:58;;;;;;;11.70;4.55;;;;;;;;;;5114671;28;20480;-82
2023/05/16 12:26:44;;;;;;;5.97;3.70;;;;;;;;;;5120756;28;20047;-80
2023/05/16 12:29:30;;;;;;;7.00;3.17;;;;;;;;;;5114206;28;20043;-79
2023/05/16 12:32:20;;;;;;;6.38;3.30;;;;;;;;;;5114924;28;20488;-79
2023/05/16 12:35:06;;;;;;;7.72;2.92;;;;;;;;;;5114521;28;20043;-79
2023/05/16 12:37:52;;;;;;;6.00;3.58;;;;;;;;;;5114553;28;20047;-78
2023/05/16 12:40:40;;;;;;;9.82;3.35;;;;;;;;;;5114577;28;20043;-81
2023/05/16 12:43:26;;;;;;;9.35;2.92;;;;;;;;;;5114085;28;20047;-82
2023/05/16 12:46:12;;;;;;;10.95;3.45;;;;;;;;;;5114024;28;20048;-80
2023/05/16 12:49:04;;;;;;;9.95;3.22;;;;;;;;;;5114170;28;20036;-79
2023/05/16 12:51:51;;;;;;;8.80;2.53;;;;;;;;;;5114017;28;20043;-80
2023/05/16 12:54:37;;;;;;;9.55;3.65;;;;;;;;;;5114179;28;20047;-81
2023/05/16 12:57:22;;;;;;;8.50;3.50;;;;;;;;;;5114050;28;20035;-76
2023/05/16 13:00:10;;;;;;;6.07;2.92;;;;;;;;;;5113896;28;20040;-75
2023/05/16 13:02:56;;;;;;;6.53;2.65;;;;;;;;;;5113863;28;20066;-79
2023/05/16 13:05:43;;;;;;;6.80;3.58;;;;;;;;;;5098516;28;20139;-78
2023/05/16 13:08:29;;;;;;;6.72;3.67;;;;;;;;;;5113479;28;20043;-79
2023/05/16 13:11:15;;;;;;;9.15;3.70;;;;;;;;;;5113208;28;20032;-78
2023/05/16 13:14:00;;;;;;;5.38;3.65;;;;;;;;;;5113739;28;20044;-80
2023/05/16 13:16:46;;;;;;;10.65;3.17;;;;;;;;;;5113789;28;20477;-78
2023/05/16 13:19:31;;;;;;;5.07;3.05;;;;;;;;;;5113591;28;20043;-77
2023/05/16 13:22:17;;;;;;;5.38;3.10;;;;;;;;;;5114134;28;20043;-81
2023/05/16 13:25:10;;;;;;;6.95;3.47;;;;;;;;;;5114076;28;20043;-82
2023/05/16 13:28:02;;;;;;;8.13;3.33;;;;;;;;;;5105169;28;20055;-80
2023/05/16 13:30:54;;;;;;;6.13;2.83;;;;;;;;;;5112324;28;20392;-82
2023/05/16 13:33:45;;;;;;;4.63;2.13;;;;;;;;;;5096570;28;20052;-82
2023/05/16 13:36:30;;;;;;;8.77;3.05;;;;;;;;;;5096883;28;20043;-81
2023/05/16 13:39:16;;;;;;;9.43;3.42;;;;;;;;;;5112080;28;20386;-78
2023/05/16 13:42:02;;;;;;;8.88;2.92;;;;;;;;;;5112857;28;20393;-82
2023/05/16 13:44:48;;;;;;;6.90;3.05;;;;;;;;;;5113948;28;20484;-83
2023/05/16 13:47:33;;;;;;;7.82;2.95;;;;;;;;;;5113745;28;20396;-85
2023/05/16 13:50:21;;;;;;;11.70;3.45;;;;;;;;;;5112391;28;20400;-80
2023/05/16 13:53:07;;;;;;;5.28;3.67;;;;;;;;;;5113590;28;20051;-78
2023/05/16 13:55:53;;;;;;;6.47;3.22;;;;;;;;;;5112796;28;20036;-81
2023/05/16 13:58:38;;;;;;;8.65;3.17;;;;;;;;;;5112896;28;20048;-77
2023/05/16 14:01:24;;;;;;;9.32;3.30;;;;;;;;;;5112524;28;20055;-77
2023/05/16 14:04:10;;;;;;;7.63;3.58;;;;;;;;;;5112639;28;20396;-82
2023/05/16 14:06:55;;;;;;;13.45;3.53;;;;;;;;;;5104272;28;20043;-80
2023/05/16 14:09:40;;;;;;;8.52;3.17;;;;;;;;;;5112231;28;20040;-78
2023/05/16 14:12:28;;;;;;;8.38;2.80;;;;;;;;;;5112763;28;20044;-77
2023/05/16 14:15:13;;;;;;;8.52;3.13;;;;;;;;;;5111584;28;20397;-79
2023/05/16 14:17:58;;;;;;;6.60;2.60;;;;;;;;;;5112545;28;20036;-78
2023/05/16 14:20:43;;;;;;;7.22;2.42;;;;;;;;;;5112411;28;20048;-78
2023/05/16 14:23:29;;;;;;;6.03;2.95;;;;;;;;;;5112051;28;20048;-77
2023/05/16 14:26:15;;;;;;;6.45;2.20;;;;;;;;;;5113039;28;20047;-77
2023/05/16 14:29:00;;;;;;;7.07;3.08;;;;;;;;;;5112691;28;20486;-77
2023/05/16 14:31:46;;;;;;;5.15;2.38;;;;;;;;;;5112215;28;20048;-82
2023/05/16 14:34:32;;;;;;;8.82;2.92;;;;;;;;;;5112408;28;20044;-77
2023/05/16 14:37:19;;;;;;;7.90;2.72;;;;;;;;;;5112143;28;20039;-78
2023/05/16 14:40:05;;;;;;;4.95;2.42;;;;;;;;;;5099158;28;20397;-77
2023/05/16 14:42:51;;;;;;;7.35;3.55;;;;;;;;;;5115920;28;20052;-80
2023/05/16 14:45:38;;;;;;;6.07;2.10;;;;;;;;;;5116694;28;20508;-78
2023/05/16 14:48:23;;;;;;;6.63;2.40;;;;;;;;;;5115999;28;20036;-80
2023/05/16 14:51:09;;;;;;;7.20;2.92;;;;;;;;;;5115273;28;20047;-76
2023/05/16 14:53:54;;;;;;;5.68;2.40;;;;;;;;;;5114813;28;20043;-80
2023/05/16 14:56:40;;;;;;;5.75;3.03;;;;;;;;;;5114753;28;20066;-78
2023/05/16 14:59:26;;;;;;;9.15;2.95;;;;;;;;;;5114330;28;20048;-80
2023/05/16 15:02:12;;;;;;;10.23;2.92;;;;;;;;;;5115022;28;20048;-81
2023/05/16 15:04:58;;;;;;;6.90;2.97;;;;;;;;;;5099136;28;20056;-77
2023/05/16 15:07:43;;;;;;;7.95;2.60;;;;;;;;;;5115093;28;20476;-82
2023/05/16 15:10:29;;;;;;;11.43;3.25;;;;;;;;;;5115091;28;20048;-78
2023/05/16 15:13:16;;;;;;;9.52;2.95;;;;;;;;;;5114792;28;20040;-78
2023/05/16 15:16:03;;;;;;;6.93;2.90;;;;;;;;;;5114285;28;20043;-82
2023/05/16 15:18:47;;;;;;;10.80;3.33;;;;;;;;;;5114106;28;20040;-83
2023/05/16 15:21:33;;;;;;;11.45;3.00;;;;;;;;;;5115389;28;20047;-78
2023/05/16 15:24:19;;;;;;;10.98;3.28;;;;;;;;;;5114223;28;20393;-78
2023/05/16 15:27:04;;;;;;;7.93;2.78;;;;;;;;;;5115517;28;20052;-77
2023/05/16 15:29:53;;;;;;;3.60;1.83;;;;;;;;;;5115098;28;20043;-79
2023/05/16 15:32:39;;;;;;;8.52;3.45;;;;;;;;;;5114802;28;20043;-77
2023/05/16 15:35:24;;;;;;;8.82;3.22;;;;;;;;;;5115258;28;20051;-77
2023/05/16 15:38:13;;;;;;;7.60;2.90;;;;;;;;;;5115778;28;20032;-79
2023/05/16 15:40:59;;;;;;;13.15;3.00;;;;;;;;;;5116666;28;20048;-85
2023/05/16 15:43:45;;;;;;;12.40;2.95;;;;;;;;;;5115836;28;20047;-83
2023/05/16 15:46:31;;;;;;;8.93;3.00;;;;;;;;;;5116090;28;20044;-81
2023/05/16 15:49:18;;;;;;;8.07;3.10;;;;;;;;;;5115906;28;20051;-79
2023/05/16 15:52:04;;;;;;;5.45;3.03;;;;;;;;;;5115443;28;20477;-79
2023/05/16 15:54:50;;;;;;;8.10;3.08;;;;;;;;;;5115483;28;20052;-81
2023/05/16 15:57:36;;;;;;;9.05;3.30;;;;;;;;;;5114498;28;20043;-78
2023/05/16 16:00:22;;;;;;;6.72;2.42;;;;;;;;;;5100422;28;20044;-81
2023/05/16 16:03:08;;;;;;;8.93;3.50;;;;;;;;;;5114610;28;20039;-78
2023/05/16 16:05:54;;;;;;;7.93;3.13;;;;;;;;;;5115090;28;20039;-81
2023/05/16 16:08:39;;;;;;;8.32;2.88;;;;;;;;;;5100339;28;20044;-84
2023/05/16 16:11:25;;;;;;;6.75;3.08;;;;;;;;;;5114993;28;20040;-78
2023/05/16 16:14:12;;;;;;;8.25;3.05;;;;;;;;;;5115060;28;20480;-82
2023/05/16 16:16:57;;;;;;;6.85;3.50;;;;;;;;;;5115231;28;20493;-81
2023/05/16 16:19:42;;;;;;;7.75;3.25;;;;;;;;;;5114798;28;20043;-79
2023/05/16 16:22:28;;;;;;;5.75;3.00;;;;;;;;;;5115154;28;20044;-78
2023/05/16 16:25:14;;;;;;;11.48;2.90;;;;;;;;;;5114981;28;20035;-82
2023/05/16 16:27:59;;;;;;;6.18;2.75;;;;;;;;;;5115006;28;20043;-78
2023/05/16 16:30:46;;;;;;;7.85;2.70;;;;;;;;;;5115173;28;20051;-78
2023/05/16 16:33:32;;;;;;;14.80;3.08;;;;;;;;;;5106232;28;20480;-79